Time;durP1;ratioP1;P1;durP2;ratioP2;P2;SDS_P1;SDS_P2;PMS_P1;PMS_P2;Temp;Humidity;BMP_temperature;BMP_pressure;BME280_temperature;BME280_humidity;BME280_pressure;Samples;Min_cycle;Max_cycle;Signal;HPM_P1;HPM_P2
2022/03/26 00:02:05;;;;;;;38.10;20.20;;;;;;;6.28;71.99;102952.31;5034355;22;20112;-71
2022/03/26 00:04:32;;;;;;;33.10;18.45;;;;;;;6.25;71.96;102947.03;5023016;22;20517;-77
2022/03/26 00:06:57;;;;;;;38.70;21.95;;;;;;;6.21;71.57;102956.91;5003640;28;20535;-77
2022/03/26 00:09:22;;;;;;;36.67;20.70;;;;;;;6.16;72.75;102952.56;5010391;28;20033;-77
2022/03/26 00:11:48;;;;;;;36.97;19.58;;;;;;;6.11;73.15;102950.88;5011016;28;20075;-77
2022/03/26 00:14:13;;;;;;;41.47;20.38;;;;;;;6.07;72.54;102949.19;5012802;28;20058;-77
2022/03/26 00:16:38;;;;;;;36.60;19.77;;;;;;;6.04;72.07;102951.91;4997299;28;20057;-77
2022/03/26 00:19:04;;;;;;;40.10;20.92;;;;;;;6.01;73.45;102946.63;4993012;28;20408;-77
2022/03/26 00:21:30;;;;;;;40.05;22.10;;;;;;;5.95;72.99;102949.41;4993471;28;20037;-77
2022/03/26 00:23:55;;;;;;;37.15;20.48;;;;;;;5.92;73.31;102945.00;4993134;28;20470;-77
2022/03/26 00:26:20;;;;;;;34.80;19.33;;;;;;;5.88;74.39;102943.28;4986708;28;20065;-77
2022/03/26 00:28:45;;;;;;;35.38;18.77;;;;;;;5.83;73.11;102950.53;5012175;28;20033;-77
2022/03/26 00:31:11;;;;;;;34.85;19.75;;;;;;;5.82;73.47;102937.22;4991961;28;20030;-77
2022/03/26 00:33:36;;;;;;;40.67;20.00;;;;;;;5.77;73.76;102940.84;4991455;28;20026;-77
2022/03/26 00:36:02;;;;;;;34.88;19.55;;;;;;;5.76;73.05;102943.56;4993111;28;20018;-77
2022/03/26 00:38:27;;;;;;;44.42;21.50;;;;;;;5.72;74.49;102942.72;4998595;28;20049;-77
2022/03/26 00:40:52;;;;;;;36.45;18.65;;;;;;;5.71;73.91;102940.97;4996122;28;20037;-77
2022/03/26 00:43:17;;;;;;;39.38;20.10;;;;;;;5.68;74.82;102945.47;5001774;28;20026;-77
2022/03/26 00:45:43;;;;;;;36.38;20.05;;;;;;;5.68;74.45;102948.16;5011315;28;20033;-77
2022/03/26 00:48:08;;;;;;;40.63;21.83;;;;;;;5.65;74.42;102945.53;5010825;28;20484;-77
2022/03/26 00:50:34;;;;;;;41.17;22.40;;;;;;;5.61;75.72;102944.72;5008080;28;20392;-77
2022/03/26 00:52:59;;;;;;;34.30;19.58;;;;;;;5.59;74.94;102936.75;5012162;28;20385;-77
2022/03/26 00:55:24;;;;;;;40.72;22.58;;;;;;;5.53;75.10;102936.84;5012291;28;20021;-77
2022/03/26 00:57:50;;;;;;;38.40;21.75;;;;;;;5.53;75.23;102942.19;5011343;28;20033;-77
2022/03/26 01:00:15;;;;;;;40.80;22.98;;;;;;;5.50;75.08;102946.72;5000626;28;20038;-77
2022/03/26 01:02:41;;;;;;;32.15;18.55;;;;;;;5.47;75.24;102942.31;4992286;28;20112;-77
2022/03/26 01:05:06;;;;;;;36.13;20.77;;;;;;;5.46;75.26;102939.66;5007755;28;20049;-77
2022/03/26 01:07:32;;;;;;;39.17;21.17;;;;;;;5.45;74.51;102933.47;5006723;28;20053;-77
2022/03/26 01:09:58;;;;;;;37.25;19.52;;;;;;;5.41;75.05;102931.75;5004960;28;20044;-77
2022/03/26 01:12:25;;;;;;;42.80;20.48;;;;;;;5.37;75.03;102930.03;5011939;28;20363;-77
2022/03/26 01:14:51;;;;;;;40.08;20.50;;;;;;;5.33;76.00;102936.34;5010744;28;20077;-77
2022/03/26 01:17:16;;;;;;;45.75;19.70;;;;;;;5.27;75.78;102929.34;5010934;28;20111;-77
2022/03/26 01:19:42;;;;;;;38.67;19.38;;;;;;;5.22;76.12;102926.72;5010047;28;20030;-77
2022/03/26 01:22:09;;;;;;;37.47;20.55;;;;;;;5.19;76.72;102926.78;5011688;28;20034;-77
2022/03/26 01:24:35;;;;;;;34.40;19.38;;;;;;;5.15;76.46;102926.88;5006479;28;20026;-77
2022/03/26 01:27:00;;;;;;;33.47;20.75;;;;;;;5.13;76.63;102937.56;4995650;28;20499;-77
2022/03/26 01:29:26;;;;;;;40.40;21.08;;;;;;;5.10;76.76;102921.63;5011552;28;20071;-77
2022/03/26 01:31:52;;;;;;;38.22;20.98;;;;;;;5.07;77.12;102929.69;5011648;28;20477;-77
2022/03/26 01:34:17;;;;;;;34.58;21.10;;;;;;;5.03;77.10;102930.63;5011251;28;20108;-77
2022/03/26 01:36:43;;;;;;;35.28;19.80;;;;;;;5.01;76.74;102929.78;5010356;28;20468;-77
2022/03/26 01:39:09;;;;;;;42.45;19.77;;;;;;;5.01;77.27;102927.13;5011316;28;20025;-77
2022/03/26 01:41:34;;;;;;;37.38;19.20;;;;;;;4.96;77.17;102931.63;5009462;28;20048;-77
2022/03/26 01:44:01;;;;;;;39.30;21.13;;;;;;;4.93;77.06;102923.69;5010339;28;20029;-77
2022/03/26 01:46:26;;;;;;;38.20;20.85;;;;;;;4.89;77.66;102934.41;5011335;28;20030;-77
2022/03/26 01:48:52;;;;;;;39.30;20.23;;;;;;;4.91;75.74;102937.03;5009777;28;20543;-77
2022/03/26 01:51:18;;;;;;;35.22;21.63;;;;;;;4.95;75.74;102937.84;5011510;28;20048;-77
2022/03/26 01:53:49;;;;;;;38.15;19.25;;;;;;;4.95;76.01;102937.84;5011133;28;20042;-77
2022/03/26 01:56:16;;;;;;;42.17;20.38;;;;;;;4.89;76.14;102934.41;5004407;28;20049;-77
2022/03/26 01:58:43;;;;;;;37.05;21.30;;;;;;;4.84;77.01;102933.59;5005548;28;20030;-77
2022/03/26 02:01:08;;;;;;;38.35;20.88;;;;;;;4.82;76.87;102931.88;5015949;28;20022;-76
2022/03/26 02:03:33;;;;;;;35.95;20.25;;;;;;;4.76;76.17;102937.25;5015366;28;20055;-75
2022/03/26 02:05:59;;;;;;;34.97;19.55;;;;;;;4.72;76.03;102936.44;5014565;28;20032;-75
2022/03/26 02:08:24;;;;;;;42.20;20.73;;;;;;;4.66;76.51;102934.75;5013626;28;20040;-75
2022/03/26 02:10:50;;;;;;;42.10;21.30;;;;;;;4.64;77.33;102928.59;5013790;28;20108;-75
2022/03/26 02:13:16;;;;;;;38.58;21.20;;;;;;;4.63;77.61;102936.59;5011340;28;20511;-75
2022/03/26 02:15:41;;;;;;;42.15;18.67;;;;;;;4.62;77.34;102932.16;5015501;28;20112;-75
2022/03/26 02:18:06;;;;;;;35.88;19.55;;;;;;;4.66;77.94;102929.44;5014308;28;20518;-75
2022/03/26 02:20:31;;;;;;;36.80;17.85;;;;;;;4.69;77.97;102933.84;5014199;28;20135;-75
2022/03/26 02:22:57;;;;;;;36.05;20.95;;;;;;;4.69;76.89;102929.38;5013713;28;20021;-75
2022/03/26 02:25:22;;;;;;;34.42;19.98;;;;;;;4.66;77.97;102931.22;5015749;28;20026;-75
2022/03/26 02:27:47;;;;;;;39.40;21.55;;;;;;;4.66;77.26;102932.09;5014972;28;20025;-75
2022/03/26 02:30:13;;;;;;;33.67;19.05;;;;;;;4.65;77.55;102932.13;5005044;28;20505;-75
2022/03/26 02:32:38;;;;;;;38.05;20.15;;;;;;;4.63;77.23;102923.28;4999285;28;20396;-75
2022/03/26 02:35:04;;;;;;;43.45;21.00;;;;;;;4.59;78.16;102933.06;5015403;28;20091;-75
2022/03/26 02:37:31;;;;;;;39.72;20.33;;;;;;;4.60;77.72;102932.19;5015168;28;20058;-75
2022/03/26 02:39:57;;;;;;;38.10;20.33;;;;;;;4.64;77.56;102927.69;5013563;28;20061;-75
2022/03/26 02:42:22;;;;;;;43.70;19.55;;;;;;;4.64;77.63;102928.59;5014438;28;20065;-75
2022/03/26 02:44:47;;;;;;;38.85;20.30;;;;;;;4.60;77.65;102928.63;5014282;28;20140;-75
2022/03/26 02:47:13;;;;;;;34.75;19.73;;;;;;;4.54;77.42;102926.97;5000265;28;20113;-75
2022/03/26 02:49:39;;;;;;;37.35;19.38;;;;;;;4.50;77.25;102928.78;4995353;28;20069;-75
2022/03/26 02:52:05;;;;;;;39.75;20.77;;;;;;;4.47;77.58;102936.81;4998007;28;20129;-75
2022/03/26 02:54:31;;;;;;;39.05;20.55;;;;;;;4.46;78.07;102926.19;5015171;28;20033;-75
2022/03/26 02:56:57;;;;;;;43.25;20.00;;;;;;;4.42;78.30;102927.13;5014691;28;20100;-75
2022/03/26 02:59:23;;;;;;;41.25;20.85;;;;;;;4.40;77.17;102935.13;5014780;28;20034;-75
2022/03/26 03:01:49;;;;;;;36.65;18.25;;;;;;;4.37;78.59;102925.38;5015250;28;20025;-75
2022/03/26 03:04:15;;;;;;;37.97;20.27;;;;;;;4.37;78.72;102920.06;5001588;28;20053;-75
2022/03/26 03:06:40;;;;;;;38.60;19.92;;;;;;;4.37;79.00;102924.53;5006462;28;20041;-75
2022/03/26 03:09:07;;;;;;;42.45;19.20;;;;;;;4.36;78.89;102930.72;5014297;28;20022;-75
2022/03/26 03:11:33;;;;;;;35.47;18.75;;;;;;;4.34;78.92;102924.56;5013374;28;20034;-75
2022/03/26 03:14:00;;;;;;;37.67;19.90;;;;;;;4.33;78.74;102926.34;4997071;28;20026;-75
2022/03/26 03:16:26;;;;;;;35.47;18.55;;;;;;;4.31;78.74;102927.28;5012812;28;20037;-75
2022/03/26 03:18:51;;;;;;;37.22;20.42;;;;;;;4.30;78.57;102936.16;5008568;28;20036;-75
2022/03/26 03:21:17;;;;;;;41.17;20.30;;;;;;;4.30;78.86;102926.38;4993965;28;20500;-75
2022/03/26 03:23:42;;;;;;;42.55;19.63;;;;;;;4.29;78.86;102926.41;5008607;28;20477;-75
2022/03/26 03:26:08;;;;;;;35.05;19.38;;;;;;;4.26;78.99;102931.75;5014149;28;20022;-75
2022/03/26 03:28:33;;;;;;;38.70;19.90;;;;;;;4.20;79.30;102927.41;5013137;28;20041;-75
2022/03/26 03:30:59;;;;;;;46.78;20.75;;;;;;;4.16;78.95;102929.22;5014655;28;20038;-75
2022/03/26 03:33:25;;;;;;;36.95;20.83;;;;;;;4.14;79.40;102928.38;5013196;28;20022;-75
2022/03/26 03:35:50;;;;;;;40.25;19.92;;;;;;;4.11;79.90;102922.19;5014038;28;20084;-75
2022/03/26 03:38:15;;;;;;;40.58;20.77;;;;;;;4.06;79.05;102924.94;5009189;28;20044;-75
2022/03/26 03:40:40;;;;;;;35.80;19.02;;;;;;;4.08;79.23;102928.44;4993973;28;20030;-75
2022/03/26 03:43:06;;;;;;;35.42;19.20;;;;;;;4.09;79.70;102924.03;5014087;28;20018;-75
2022/03/26 03:45:31;;;;;;;36.92;20.17;;;;;;;4.09;80.34;102932.88;5013649;28;20048;-75
2022/03/26 03:47:57;;;;;;;36.22;21.30;;;;;;;4.08;79.31;102923.13;5012879;28;20472;-75
2022/03/26 03:50:22;;;;;;;35.00;21.08;;;;;;;4.10;78.84;102925.75;5014042;28;20033;-75
2022/03/26 03:52:48;;;;;;;35.50;19.75;;;;;;;4.08;79.47;102931.09;5006891;28;20026;-75
2022/03/26 03:55:13;;;;;;;34.95;18.30;;;;;;;4.10;78.66;102936.41;4994500;28;20029;-75
2022/03/26 03:57:43;;;;;;;39.22;20.95;;;;;;;4.09;79.37;102939.97;5011460;28;20044;-75
2022/03/26 04:00:12;;;;;;;37.97;21.25;;;;;;;4.07;79.14;102942.66;5014009;28;20472;-75
2022/03/26 04:02:37;;;;;;;36.83;20.00;;;;;;;4.03;78.00;102946.25;5012600;28;20064;-75
2022/03/26 04:05:03;;;;;;;38.13;19.33;;;;;;;3.96;78.81;102948.09;5014145;28;20123;-75
2022/03/26 04:07:28;;;;;;;40.42;21.60;;;;;;;3.90;78.78;102944.66;5008041;28;20035;-75
2022/03/26 04:09:54;;;;;;;39.38;20.98;;;;;;;3.83;79.03;102943.81;4993629;28;20118;-75
2022/03/26 04:12:19;;;;;;;43.47;20.42;;;;;;;3.76;80.00;102940.34;5007600;28;20409;-75
2022/03/26 04:14:44;;;;;;;43.67;21.48;;;;;;;3.74;80.07;102950.13;5012862;28;20037;-75
2022/03/26 04:17:13;;;;;;;38.05;20.35;;;;;;;3.74;80.46;102946.59;5012154;28;20036;-75
2022/03/26 04:19:39;;;;;;;32.42;18.67;;;;;;;3.71;80.58;102946.63;5013929;28;20040;-75
2022/03/26 04:22:06;;;;;;;38.75;18.95;;;;;;;3.70;81.00;102948.38;5012411;28;20121;-75
2022/03/26 04:24:32;;;;;;;39.80;19.85;;;;;;;3.72;80.39;102945.72;5013439;28;20071;-75
2022/03/26 04:26:57;;;;;;;35.95;19.52;;;;;;;3.71;80.89;102944.84;5006201;28;20033;-75
2022/03/26 04:29:22;;;;;;;35.67;19.73;;;;;;;3.70;80.50;102943.06;5013907;28;20044;-75
2022/03/26 04:31:47;;;;;;;40.65;20.90;;;;;;;3.68;80.59;102942.22;5013945;28;20026;-75
2022/03/26 04:34:13;;;;;;;34.90;18.92;;;;;;;3.65;81.00;102948.44;5013433;28;20037;-75
2022/03/26 04:36:38;;;;;;;39.38;20.58;;;;;;;3.62;81.19;102948.47;5013427;28;20117;-75
2022/03/26 04:39:04;;;;;;;38.28;18.20;;;;;;;3.65;81.05;102945.78;5013586;28;20029;-75
2022/03/26 04:41:29;;;;;;;40.75;20.90;;;;;;;3.64;81.02;102951.13;5010815;28;20492;-75
2022/03/26 04:43:55;;;;;;;38.67;20.80;;;;;;;3.62;81.60;102937.84;5011183;28;20184;-75
2022/03/26 04:46:20;;;;;;;37.97;20.02;;;;;;;3.59;80.89;102942.31;5013375;28;20405;-75
2022/03/26 04:48:46;;;;;;;45.22;21.05;;;;;;;3.59;81.43;102942.31;5013414;28;20038;-75
2022/03/26 04:51:14;;;;;;;39.38;19.27;;;;;;;3.56;81.62;102942.31;5012062;28;20030;-75
2022/03/26 04:53:39;;;;;;;35.75;19.38;;;;;;;3.53;81.61;102942.34;5013391;28;20037;-74
2022/03/26 04:56:05;;;;;;;37.72;19.98;;;;;;;3.51;82.17;102939.72;4993140;28;20042;-74
2022/03/26 04:58:30;;;;;;;35.67;20.63;;;;;;;3.46;81.62;102942.44;4992445;28;20036;-74
2022/03/26 05:00:56;;;;;;;37.30;19.75;;;;;;;3.44;81.61;102940.66;4992205;28;20120;-74
2022/03/26 05:03:24;;;;;;;36.08;20.35;;;;;;;3.41;81.74;102938.94;4993421;28;20126;-75
2022/03/26 05:05:49;;;;;;;38.40;21.40;;;;;;;3.39;82.16;102938.06;4993984;28;20120;-75
2022/03/26 05:08:15;;;;;;;38.22;19.63;;;;;;;3.37;81.86;102942.53;5011856;28;20089;-75
2022/03/26 05:10:40;;;;;;;33.13;19.58;;;;;;;3.34;82.36;102939.91;5011348;28;20706;-75
2022/03/26 05:13:05;;;;;;;40.88;20.30;;;;;;;3.31;81.55;102938.16;5013489;28;20409;-75
2022/03/26 05:15:31;;;;;;;34.67;18.40;;;;;;;3.27;82.19;102943.50;5012256;28;20030;-75
2022/03/26 05:17:56;;;;;;;41.53;20.70;;;;;;;3.23;82.18;102936.44;5012896;28;20052;-75
2022/03/26 05:20:23;;;;;;;35.95;20.45;;;;;;;3.20;82.33;102941.78;5013006;28;20458;-75
2022/03/26 05:22:49;;;;;;;40.45;19.27;;;;;;;3.20;82.01;102941.78;5010782;28;20026;-75
2022/03/26 05:25:16;;;;;;;39.83;21.02;;;;;;;3.22;80.86;102951.53;5011524;28;20068;-75
2022/03/26 05:27:45;;;;;;;34.22;16.77;;;;;;;3.23;81.07;102952.41;5013176;28;20052;-75
2022/03/26 05:30:10;;;;;;;36.83;17.80;;;;;;;3.18;80.45;102954.19;5011777;28;20033;-75
2022/03/26 05:32:35;;;;;;;38.05;20.30;;;;;;;3.18;80.88;102964.81;5011074;28;20512;-75
2022/03/26 05:35:01;;;;;;;40.63;20.00;;;;;;;3.21;80.65;102960.38;5012719;28;20037;-75
2022/03/26 05:37:26;;;;;;;40.58;20.23;;;;;;;3.21;81.04;102959.50;5011385;28;20026;-75
2022/03/26 05:39:51;;;;;;;38.33;19.70;;;;;;;3.19;81.02;102963.94;5012739;28;20075;-75
2022/03/26 05:42:18;;;;;;;41.25;19.50;;;;;;;3.13;81.25;102968.44;5012901;28;20029;-75
2022/03/26 05:44:44;;;;;;;41.40;21.17;;;;;;;3.09;81.58;102971.09;5010629;28;20473;-75
2022/03/26 05:47:09;;;;;;;35.67;18.75;;;;;;;3.08;81.76;102966.69;5011695;28;20071;-75
2022/03/26 05:49:34;;;;;;;36.42;20.60;;;;;;;3.09;82.19;102972.00;5010401;28;20079;-75
2022/03/26 05:52:00;;;;;;;48.63;19.10;;;;;;;3.09;82.87;102976.41;5011342;28;20040;-75
2022/03/26 05:54:25;;;;;;;34.95;18.70;;;;;;;3.10;82.99;102978.19;5012011;28;20034;-75
2022/03/26 05:56:53;;;;;;;41.90;20.20;;;;;;;3.11;82.05;102979.94;5013398;28;20381;-75
2022/03/26 05:59:20;;;;;;;36.65;19.60;;;;;;;3.13;82.87;102981.72;5012939;28;20030;-75
2022/03/26 06:01:47;;;;;;;38.15;20.75;;;;;;;3.17;82.77;102995.84;5013330;28;20030;-75
2022/03/26 06:04:12;;;;;;;36.30;20.52;;;;;;;3.19;81.74;102991.38;5007035;28;20042;-75
2022/03/26 06:06:38;;;;;;;39.13;21.33;;;;;;;3.22;82.27;102994.03;5008637;28;20091;-75
2022/03/26 06:09:03;;;;;;;40.17;19.45;;;;;;;3.27;82.86;102997.53;5008828;28;20477;-75
2022/03/26 06:11:28;;;;;;;39.13;20.70;;;;;;;3.32;82.98;102997.47;5012040;28;20092;-75
2022/03/26 06:13:54;;;;;;;35.45;20.15;;;;;;;3.33;82.75;102999.25;5012326;28;20034;-75
2022/03/26 06:16:19;;;;;;;37.72;20.38;;;;;;;3.39;83.16;103001.00;5011908;28;20119;-75
2022/03/26 06:18:45;;;;;;;37.90;20.33;;;;;;;3.44;83.12;103000.06;5009958;28;20230;-75
2022/03/26 06:21:10;;;;;;;36.80;19.65;;;;;;;3.50;83.00;102997.34;5011071;28;20117;-75
2022/03/26 06:23:35;;;;;;;38.55;20.13;;;;;;;3.55;82.91;102991.97;5012334;28;20026;-75
2022/03/26 06:26:01;;;;;;;40.30;21.20;;;;;;;3.62;81.92;102993.69;5012513;28;20026;-75
2022/03/26 06:28:26;;;;;;;39.47;19.45;;;;;;;3.69;82.01;102994.50;5011153;28;20022;-75
2022/03/26 06:30:52;;;;;;;39.60;22.08;;;;;;;3.78;81.71;102996.19;5012721;28;20354;-75
2022/03/26 06:33:18;;;;;;;39.20;22.10;;;;;;;3.87;81.33;102993.44;5007403;28;20017;-75
2022/03/26 06:35:45;;;;;;;41.30;20.73;;;;;;;3.97;81.02;103005.75;5010767;28;20030;-75
2022/03/26 06:38:11;;;;;;;39.22;19.25;;;;;;;4.09;80.42;103004.72;4995130;28;20042;-75
2022/03/26 06:40:37;;;;;;;39.60;20.80;;;;;;;4.19;80.28;103001.03;5012138;28;20113;-75
2022/03/26 06:43:06;;;;;;;41.22;21.42;;;;;;;4.30;80.51;103005.38;5010140;28;20029;-75
2022/03/26 06:45:33;;;;;;;44.33;22.33;;;;;;;4.42;80.38;103009.66;5013327;28;20022;-75
2022/03/26 06:47:58;;;;;;;39.17;20.50;;;;;;;4.54;80.81;103012.16;5016428;28;20044;-75
2022/03/26 06:50:24;;;;;;;39.08;22.92;;;;;;;4.65;81.14;103020.00;5014836;28;20022;-75
2022/03/26 06:52:49;;;;;;;41.83;23.00;;;;;;;4.77;80.62;103017.16;5013117;28;20010;-75
2022/03/26 06:55:15;;;;;;;41.38;20.30;;;;;;;4.88;80.77;103022.34;5014674;28;20037;-75
2022/03/26 06:57:41;;;;;;;41.85;22.20;;;;;;;4.99;80.41;103015.09;5015972;28;20034;-75
2022/03/26 07:00:09;;;;;;;39.88;22.15;;;;;;;5.11;78.99;103024.69;5015733;28;20026;-75
2022/03/26 07:02:35;;;;;;;39.25;22.23;;;;;;;5.19;78.91;103014.75;5014779;28;20026;-75
2022/03/26 07:05:01;;;;;;;39.83;22.77;;;;;;;5.28;79.08;103018.19;5014296;28;20053;-75
2022/03/26 07:07:26;;;;;;;43.38;24.58;;;;;;;5.40;77.79;103031.31;5013458;28;20044;-75
2022/03/26 07:09:51;;;;;;;44.78;25.42;;;;;;;5.51;77.94;103024.03;4993840;28;20466;-75
2022/03/26 07:12:18;;;;;;;40.85;21.65;;;;;;;5.57;78.03;103026.59;4995348;28;20030;-75
2022/03/26 07:14:44;;;;;;;42.03;24.75;;;;;;;5.68;77.02;103030.84;5004279;28;20080;-75
2022/03/26 07:17:09;;;;;;;47.17;24.15;;;;;;;5.76;77.17;103029.81;5014696;28;20022;-75
2022/03/26 07:19:34;;;;;;;45.22;25.60;;;;;;;5.86;76.66;103027.84;5013110;28;20926;-75
2022/03/26 07:22:00;;;;;;;41.38;23.38;;;;;;;6.00;75.00;103032.09;5014565;28;20104;-75
2022/03/26 07:24:25;;;;;;;40.90;23.35;;;;;;;6.12;75.14;103026.53;5013787;28;20030;-75
2022/03/26 07:26:51;;;;;;;41.75;23.23;;;;;;;6.22;74.65;103028.09;5008890;28;20027;-75
2022/03/26 07:29:16;;;;;;;42.35;22.77;;;;;;;6.32;73.88;103026.13;4994472;28;20018;-74
2022/03/26 07:31:41;;;;;;;36.38;21.65;;;;;;;6.39;73.80;103030.41;5012560;28;20491;-76
2022/03/26 07:34:07;;;;;;;36.40;21.80;;;;;;;6.47;73.63;103035.59;5011747;28;20034;-75
2022/03/26 07:36:32;;;;;;;39.60;23.95;;;;;;;6.57;73.24;103033.63;5011809;28;20112;-75
2022/03/26 07:38:58;;;;;;;39.92;21.63;;;;;;;6.62;73.09;103037.97;5011828;28;20030;-75
2022/03/26 07:41:23;;;;;;;46.05;24.13;;;;;;;6.72;73.32;103040.41;5010823;28;20057;-75
2022/03/26 07:43:49;;;;;;;41.30;24.70;;;;;;;6.80;72.47;103031.31;5008439;28;20068;-74
2022/03/26 07:46:18;;;;;;;46.00;23.75;;;;;;;6.86;73.18;103026.75;5013061;28;20030;-74
2022/03/26 07:48:43;;;;;;;43.47;25.65;;;;;;;6.95;72.76;103034.56;5011354;28;20048;-74
2022/03/26 07:51:08;;;;;;;42.65;25.65;;;;;;;7.05;71.45;103040.59;5008803;28;20536;-74
2022/03/26 07:53:34;;;;;;;40.00;24.00;;;;;;;7.10;71.35;103038.66;5011774;28;20022;-74
2022/03/26 07:55:59;;;;;;;42.33;26.15;;;;;;;7.17;70.49;103042.97;5011320;28;20017;-74
2022/03/26 07:58:24;;;;;;;39.80;23.13;;;;;;;7.25;70.48;103040.13;5013021;28;20069;-74
2022/03/26 08:00:50;;;;;;;40.67;23.30;;;;;;;7.33;70.44;103052.38;5011897;28;20034;-74
2022/03/26 08:03:15;;;;;;;40.13;24.23;;;;;;;7.39;70.23;103039.78;5012497;28;20033;-74
2022/03/26 08:05:40;;;;;;;43.95;25.48;;;;;;;7.50;69.88;103041.25;5010304;28;20113;-74
2022/03/26 08:08:06;;;;;;;43.25;24.13;;;;;;;7.65;69.95;103040.00;5010714;28;20033;-74
2022/03/26 08:10:32;;;;;;;43.13;22.73;;;;;;;7.75;69.69;103042.44;5011379;28;20033;-74
2022/03/26 08:12:57;;;;;;;41.85;23.20;;;;;;;7.80;69.68;103041.38;5012954;28;20435;-74
2022/03/26 08:15:23;;;;;;;38.50;21.33;;;;;;;7.83;68.71;103044.00;5012968;28;20026;-74
2022/03/26 08:17:48;;;;;;;36.85;22.52;;;;;;;7.96;68.88;103047.19;5012697;28;20033;-74
2022/03/26 08:20:14;;;;;;;43.33;23.33;;;;;;;8.08;68.66;103045.13;5012551;28;20030;-74
2022/03/26 08:22:41;;;;;;;40.75;22.65;;;;;;;8.14;69.23;103048.53;5012321;28;20030;-74
2022/03/26 08:25:10;;;;;;;40.92;22.25;;;;;;;8.25;69.47;103053.56;5010405;28;20033;-74
2022/03/26 08:27:36;;;;;;;44.35;22.25;;;;;;;8.29;69.61;103052.56;4993253;28;20061;-74
2022/03/26 08:30:03;;;;;;;49.08;23.67;;;;;;;8.38;69.95;103049.63;5007231;28;20030;-74
2022/03/26 08:32:28;;;;;;;45.17;23.30;;;;;;;8.45;68.29;103054.81;5010802;28;20034;-74
2022/03/26 08:34:53;;;;;;;41.85;21.33;;;;;;;8.49;68.02;103057.41;5011704;28;20043;-74
2022/03/26 08:37:18;;;;;;;36.72;20.20;;;;;;;8.56;68.16;103053.63;5012587;28;20021;-74
2022/03/26 08:39:44;;;;;;;38.33;21.42;;;;;;;8.62;68.85;103060.56;5012024;28;20034;-74
2022/03/26 08:42:09;;;;;;;39.28;23.08;;;;;;;8.73;68.07;103057.59;5010306;28;20037;-74
2022/03/26 08:44:34;;;;;;;40.38;22.77;;;;;;;8.86;68.58;103064.34;5012115;28;20469;-74
2022/03/26 08:47:02;;;;;;;37.55;21.33;;;;;;;8.91;68.63;103058.81;5010159;28;20127;-74
2022/03/26 08:49:28;;;;;;;36.45;21.33;;;;;;;9.03;67.50;103066.47;5011269;28;20550;-74
2022/03/26 08:51:54;;;;;;;46.03;23.30;;;;;;;9.18;68.72;103061.56;5010645;28;20018;-75
2022/03/26 08:54:19;;;;;;;42.30;22.33;;;;;;;9.35;68.13;103063.72;5010998;28;20085;-75
2022/03/26 08:56:44;;;;;;;43.67;21.98;;;;;;;9.52;67.99;103057.81;5011177;28;20677;-75
2022/03/26 08:59:10;;;;;;;37.63;22.95;;;;;;;9.66;67.04;103060.88;5010816;28;20033;-75
2022/03/26 09:01:35;;;;;;;37.95;22.20;;;;;;;9.74;66.25;103063.31;5008982;28;20092;-75
2022/03/26 09:04:01;;;;;;;39.75;22.40;;;;;;;9.87;67.10;103064.66;5010998;28;20057;-75
2022/03/26 09:06:26;;;;;;;44.83;21.83;;;;;;;9.97;65.96;103067.88;5002662;28;20033;-75
2022/03/26 09:08:51;;;;;;;39.13;22.17;;;;;;;10.11;66.00;103067.41;5010654;28;20053;-75
2022/03/26 09:11:17;;;;;;;38.47;22.58;;;;;;;10.21;66.10;103071.50;5011875;28;20033;-75
2022/03/26 09:13:43;;;;;;;41.25;22.92;;;;;;;10.35;67.40;103072.84;5010805;28;20017;-74
2022/03/26 09:16:08;;;;;;;38.92;22.13;;;;;;;10.40;63.16;103074.44;5011740;28;20029;-75
2022/03/26 09:18:33;;;;;;;36.03;20.70;;;;;;;10.44;64.54;103077.88;5011548;28;20036;-70
2022/03/26 09:20:59;;;;;;;41.15;23.17;;;;;;;10.45;64.55;103074.25;5013239;28;20497;-72
2022/03/26 09:23:24;;;;;;;46.67;24.73;;;;;;;10.47;64.93;103072.41;4999950;28;20038;-71
2022/03/26 09:25:49;;;;;;;50.33;25.42;;;;;;;10.59;64.14;103076.44;4992861;28;20404;-72
2022/03/26 09:28:15;;;;;;;44.55;26.30;;;;;;;10.69;64.89;103088.59;5012202;28;20030;-74
2022/03/26 09:30:40;;;;;;;41.50;23.15;;;;;;;10.79;63.90;103076.56;5013441;28;20076;-70
2022/03/26 09:33:06;;;;;;;37.30;22.45;;;;;;;10.81;64.37;103077.38;5011696;28;20080;-71
2022/03/26 09:35:32;;;;;;;33.38;21.13;;;;;;;10.87;62.92;103078.94;5013567;28;20029;-71
2022/03/26 09:37:57;;;;;;;38.42;21.85;;;;;;;10.97;63.87;103071.41;5013207;28;20068;-71
2022/03/26 09:40:23;;;;;;;39.85;22.08;;;;;;;11.11;61.69;103073.53;5011123;28;20109;-70
2022/03/26 09:42:51;;;;;;;37.00;19.92;;;;;;;11.21;63.37;103065.97;5012755;28;20454;-71
2022/03/26 09:45:17;;;;;;;39.80;21.50;;;;;;;11.30;61.43;103063.78;5011258;28;20121;-71
2022/03/26 09:47:42;;;;;;;38.63;23.10;;;;;;;11.42;62.72;103066.91;5011646;28;20033;-71
2022/03/26 09:50:09;;;;;;;41.47;23.63;;;;;;;11.49;62.22;103057.63;5012105;28;20036;-70
2022/03/26 09:52:35;;;;;;;43.53;23.70;;;;;;;11.59;62.30;103058.13;5003736;28;20366;-70
2022/03/26 09:55:02;;;;;;;43.50;25.10;;;;;;;11.76;63.54;103060.09;5011975;28;20025;-72
2022/03/26 09:57:28;;;;;;;41.38;23.65;;;;;;;11.88;61.50;103059.56;5007645;28;20026;-71
2022/03/26 09:59:53;;;;;;;36.70;20.48;;;;;;;11.92;59.58;103058.50;5015208;28;20029;-72
2022/03/26 10:02:18;;;;;;;41.45;22.48;;;;;;;11.96;58.27;103060.16;5013768;28;20041;-71
2022/03/26 10:04:44;;;;;;;39.15;21.38;;;;;;;12.03;58.78;103058.91;5009487;28;20489;-71
2022/03/26 10:07:10;;;;;;;33.80;18.95;;;;;;;12.13;59.36;103056.69;5011598;28;20026;-71
2022/03/26 10:09:36;;;;;;;38.75;20.05;;;;;;;12.22;57.32;103056.28;5011193;28;20040;-70
2022/03/26 10:12:08;;;;;;;35.15;19.38;;;;;;;12.28;59.36;103062.34;5010314;28;20129;-70
2022/03/26 10:14:37;;;;;;;34.28;18.92;;;;;;;12.37;57.87;103064.63;4991524;28;20084;-70
2022/03/26 10:17:21;;;;;;;39.03;20.42;;;;;;;12.47;57.70;103065.94;5007645;28;20025;-70
2022/03/26 10:19:47;;;;;;;39.28;20.17;;;;;;;12.52;55.91;103058.53;5011936;28;20055;-73
2022/03/26 10:22:28;;;;;;;38.53;20.25;;;;;;;12.54;58.48;103059.31;5015090;28;20026;-73
2022/03/26 10:24:55;;;;;;;36.22;20.35;;;;;;;12.62;55.19;103064.38;5015787;28;20113;-73
2022/03/26 10:27:21;;;;;;;36.70;19.40;;;;;;;12.62;56.34;103056.31;5012717;28;20068;-73
2022/03/26 10:29:54;;;;;;;36.38;17.95;;;;;;;12.70;57.32;103067.59;5014576;28;20124;-73
2022/03/26 10:35:27;;;;;;;31.95;15.55;;;;;;;12.89;51.81;103056.78;5014590;28;20704;-73
2022/03/26 10:37:58;;;;;;;29.98;14.10;;;;;;;12.95;53.91;103058.34;5014269;28;20053;-73
2022/03/26 10:40:26;;;;;;;28.10;13.07;;;;;;;12.93;51.40;103050.31;5014976;28;20033;-73
2022/03/26 10:42:57;;;;;;;30.00;14.20;;;;;;;12.88;51.75;103049.63;5014256;28;20061;-74
2022/03/26 10:45:23;;;;;;;30.23;16.33;;;;;;;12.90;50.34;103055.00;5013273;28;20041;-73
2022/03/26 10:47:52;;;;;;;33.33;16.08;;;;;;;12.97;49.62;103048.31;5013033;28;20030;-73
2022/03/26 10:50:18;;;;;;;31.55;14.73;;;;;;;12.98;51.76;103051.91;5012907;28;20032;-73
2022/03/26 10:52:43;;;;;;;31.60;16.13;;;;;;;13.00;52.18;103036.50;5013026;28;20472;-74
2022/03/26 10:55:14;;;;;;;30.42;15.45;;;;;;;13.06;51.13;103047.91;5014059;28;20600;-73
2022/03/26 10:57:41;;;;;;;35.80;16.15;;;;;;;13.19;49.10;103047.28;5012522;28;20030;-73
2022/03/26 11:00:08;;;;;;;30.90;15.50;;;;;;;13.25;48.96;103044.28;5008892;28;20034;-73
2022/03/26 11:02:34;;;;;;;30.15;15.80;;;;;;;13.31;49.52;103043.09;5006081;28;20034;-73
2022/03/26 11:04:59;;;;;;;30.38;14.77;;;;;;;13.35;48.46;103045.59;5012374;28;20052;-72
2022/03/26 11:07:25;;;;;;;35.53;14.43;;;;;;;13.38;49.60;103039.16;5013627;28;20030;-73
2022/03/26 11:09:51;;;;;;;29.80;16.10;;;;;;;13.37;49.24;103037.44;5012713;28;20026;-73
2022/03/26 11:12:18;;;;;;;30.83;15.68;;;;;;;13.38;49.43;103034.66;5014005;28;20026;-73
2022/03/26 11:14:45;;;;;;;28.20;14.13;;;;;;;13.42;49.35;103036.22;4993904;28;20371;-73